sensor_id;sensor_type;location;lat;lon;timestamp;P1;durP1;ratioP1;P2;durP2;ratioP2
19179;SDS011;9722;48.754;8.868;2023-02-01T00:01:33;0.90;;;0.90;;
19179;SDS011;9722;48.754;8.868;2023-02-01T00:04:54;1.30;;;1.20;;
19179;SDS011;9722;48.754;8.868;2023-02-01T00:08:14;1.23;;;1.13;;
19179;SDS011;9722;48.754;8.868;2023-02-01T00:11:35;1.20;;;1.10;;
19179;SDS011;9722;48.754;8.868;2023-02-01T00:14:55;0.97;;;0.97;;
19179;SDS011;9722;48.754;8.868;2023-02-01T00:18:15;1.10;;;1.07;;
19179;SDS011;9722;48.754;8.868;2023-02-01T00:21:36;1.30;;;1.10;;
19179;SDS011;9722;48.754;8.868;2023-02-01T00:24:56;1.17;;;1.07;;
19179;SDS011;9722;48.754;8.868;2023-02-01T00:28:17;0.80;;;0.80;;
19179;SDS011;9722;48.754;8.868;2023-02-01T00:31:37;1.27;;;0.87;;
19179;SDS011;9722;48.754;8.868;2023-02-01T00:34:58;0.93;;;0.90;;
19179;SDS011;9722;48.754;8.868;2023-02-01T00:38:19;1.10;;;1.07;;
19179;SDS011;9722;48.754;8.868;2023-02-01T00:41:39;0.97;;;0.97;;
19179;SDS011;9722;48.754;8.868;2023-02-01T00:45:00;0.93;;;0.80;;
19179;SDS011;9722;48.754;8.868;2023-02-01T00:48:21;1.00;;;0.83;;
19179;SDS011;9722;48.754;8.868;2023-02-01T00:51:41;0.90;;;0.90;;
19179;SDS011;9722;48.754;8.868;2023-02-01T00:55:02;3.90;;;1.00;;
19179;SDS011;9722;48.754;8.868;2023-02-01T00:58:23;0.73;;;0.73;;
19179;SDS011;9722;48.754;8.868;2023-02-01T01:01:45;0.70;;;0.70;;
19179;SDS011;9722;48.754;8.868;2023-02-01T01:05:06;0.87;;;0.87;;
19179;SDS011;9722;48.754;8.868;2023-02-01T01:08:26;1.07;;;0.70;;
19179;SDS011;9722;48.754;8.868;2023-02-01T01:11:47;0.97;;;0.80;;
19179;SDS011;9722;48.754;8.868;2023-02-01T01:15:07;0.87;;;0.87;;
19179;SDS011;9722;48.754;8.868;2023-02-01T01:18:29;0.90;;;0.90;;
19179;SDS011;9722;48.754;8.868;2023-02-01T01:21:50;0.93;;;0.93;;
19179;SDS011;9722;48.754;8.868;2023-02-01T01:25:10;1.20;;;1.10;;
19179;SDS011;9722;48.754;8.868;2023-02-01T01:28:31;1.40;;;1.30;;
19179;SDS011;9722;48.754;8.868;2023-02-01T01:31:52;1.43;;;1.33;;
19179;SDS011;9722;48.754;8.868;2023-02-01T01:35:12;1.70;;;1.60;;
19179;SDS011;9722;48.754;8.868;2023-02-01T01:38:33;1.20;;;1.10;;
19179;SDS011;9722;48.754;8.868;2023-02-01T01:41:54;1.20;;;1.10;;
19179;SDS011;9722;48.754;8.868;2023-02-01T01:45:31;1.37;;;1.13;;
19179;SDS011;9722;48.754;8.868;2023-02-01T01:48:56;1.30;;;1.20;;
19179;SDS011;9722;48.754;8.868;2023-02-01T01:52:20;0.90;;;0.90;;
19179;SDS011;9722;48.754;8.868;2023-02-01T01:55:41;0.83;;;0.83;;
19179;SDS011;9722;48.754;8.868;2023-02-01T01:59:03;2.20;;;1.00;;
19179;SDS011;9722;48.754;8.868;2023-02-01T02:02:25;0.87;;;0.87;;
19179;SDS011;9722;48.754;8.868;2023-02-01T02:05:46;0.80;;;0.80;;
19179;SDS011;9722;48.754;8.868;2023-02-01T02:09:10;0.80;;;0.80;;
19179;SDS011;9722;48.754;8.868;2023-02-01T02:12:31;0.70;;;0.70;;
19179;SDS011;9722;48.754;8.868;2023-02-01T02:15:59;1.00;;;0.97;;
19179;SDS011;9722;48.754;8.868;2023-02-01T02:27:23;0.93;;;0.90;;
19179;SDS011;9722;48.754;8.868;2023-02-01T02:35:46;0.73;;;0.70;;
19179;SDS011;9722;48.754;8.868;2023-02-01T02:38:56;0.80;;;0.80;;
19179;SDS011;9722;48.754;8.868;2023-02-01T02:42:48;0.80;;;0.80;;
19179;SDS011;9722;48.754;8.868;2023-02-01T02:46:36;1.30;;;0.93;;
19179;SDS011;9722;48.754;8.868;2023-02-01T02:54:11;1.20;;;1.00;;
19179;SDS011;9722;48.754;8.868;2023-02-01T02:57:53;0.83;;;0.83;;
19179;SDS011;9722;48.754;8.868;2023-02-01T03:01:34;1.30;;;1.20;;
19179;SDS011;9722;48.754;8.868;2023-02-01T03:05:13;1.87;;;1.43;;
19179;SDS011;9722;48.754;8.868;2023-02-01T03:08:35;1.20;;;1.10;;
19179;SDS011;9722;48.754;8.868;2023-02-01T03:11:57;1.07;;;1.07;;
19179;SDS011;9722;48.754;8.868;2023-02-01T03:15:45;0.70;;;0.70;;
19179;SDS011;9722;48.754;8.868;2023-02-01T03:19:22;1.07;;;1.07;;
19179;SDS011;9722;48.754;8.868;2023-02-01T03:22:47;0.60;;;0.60;;
19179;SDS011;9722;48.754;8.868;2023-02-01T03:26:11;0.70;;;0.70;;
19179;SDS011;9722;48.754;8.868;2023-02-01T03:29:40;0.60;;;0.60;;
19179;SDS011;9722;48.754;8.868;2023-02-01T03:33:06;0.67;;;0.67;;
19179;SDS011;9722;48.754;8.868;2023-02-01T03:36:40;0.50;;;0.50;;
19179;SDS011;9722;48.754;8.868;2023-02-01T03:40:08;0.63;;;0.63;;
19179;SDS011;9722;48.754;8.868;2023-02-01T03:43:33;0.70;;;0.70;;
19179;SDS011;9722;48.754;8.868;2023-02-01T03:47:10;0.73;;;0.73;;
19179;SDS011;9722;48.754;8.868;2023-02-01T03:50:43;0.53;;;0.53;;
19179;SDS011;9722;48.754;8.868;2023-02-01T03:54:09;0.63;;;0.63;;
19179;SDS011;9722;48.754;8.868;2023-02-01T03:57:34;0.53;;;0.53;;
19179;SDS011;9722;48.754;8.868;2023-02-01T04:00:59;0.90;;;0.70;;
19179;SDS011;9722;48.754;8.868;2023-02-01T04:04:20;0.90;;;0.70;;
19179;SDS011;9722;48.754;8.868;2023-02-01T04:07:40;1.03;;;0.60;;
19179;SDS011;9722;48.754;8.868;2023-02-01T04:11:01;0.87;;;0.77;;
19179;SDS011;9722;48.754;8.868;2023-02-01T04:14:21;0.60;;;0.60;;
19179;SDS011;9722;48.754;8.868;2023-02-01T04:17:42;0.73;;;0.60;;
19179;SDS011;9722;48.754;8.868;2023-02-01T04:21:02;1.60;;;0.60;;
19179;SDS011;9722;48.754;8.868;2023-02-01T04:24:24;0.63;;;0.63;;
19179;SDS011;9722;48.754;8.868;2023-02-01T04:27:44;0.70;;;0.70;;
19179;SDS011;9722;48.754;8.868;2023-02-01T04:31:05;0.80;;;0.80;;
19179;SDS011;9722;48.754;8.868;2023-02-01T04:34:25;0.83;;;0.83;;
19179;SDS011;9722;48.754;8.868;2023-02-01T04:37:46;0.90;;;0.90;;
19179;SDS011;9722;48.754;8.868;2023-02-01T04:41:06;0.63;;;0.63;;
19179;SDS011;9722;48.754;8.868;2023-02-01T04:44:27;0.67;;;0.67;;
19179;SDS011;9722;48.754;8.868;2023-02-01T04:47:47;1.07;;;0.70;;
19179;SDS011;9722;48.754;8.868;2023-02-01T04:51:08;0.57;;;0.57;;
19179;SDS011;9722;48.754;8.868;2023-02-01T04:54:29;0.80;;;0.80;;
19179;SDS011;9722;48.754;8.868;2023-02-01T04:57:50;0.80;;;0.80;;
19179;SDS011;9722;48.754;8.868;2023-02-01T05:01:10;2.07;;;0.87;;
19179;SDS011;9722;48.754;8.868;2023-02-01T05:04:31;0.80;;;0.80;;
19179;SDS011;9722;48.754;8.868;2023-02-01T05:07:51;1.10;;;1.00;;
19179;SDS011;9722;48.754;8.868;2023-02-01T05:11:12;0.93;;;0.90;;
19179;SDS011;9722;48.754;8.868;2023-02-01T05:14:51;0.70;;;0.70;;
19179;SDS011;9722;48.754;8.868;2023-02-01T05:18:12;0.80;;;0.80;;
19179;SDS011;9722;48.754;8.868;2023-02-01T05:21:33;1.10;;;0.70;;
19179;SDS011;9722;48.754;8.868;2023-02-01T05:24:53;0.97;;;0.80;;
19179;SDS011;9722;48.754;8.868;2023-02-01T05:28:13;0.90;;;0.90;;
19179;SDS011;9722;48.754;8.868;2023-02-01T05:31:34;0.83;;;0.83;;
19179;SDS011;9722;48.754;8.868;2023-02-01T05:34:55;0.87;;;0.87;;
19179;SDS011;9722;48.754;8.868;2023-02-01T05:38:15;1.00;;;1.00;;
19179;SDS011;9722;48.754;8.868;2023-02-01T05:41:36;1.53;;;1.43;;
19179;SDS011;9722;48.754;8.868;2023-02-01T05:44:56;1.30;;;1.20;;
19179;SDS011;9722;48.754;8.868;2023-02-01T05:48:17;1.60;;;1.10;;
19179;SDS011;9722;48.754;8.868;2023-02-01T05:51:38;1.53;;;1.20;;
19179;SDS011;9722;48.754;8.868;2023-02-01T05:54:58;1.00;;;1.00;;
19179;SDS011;9722;48.754;8.868;2023-02-01T05:58:19;1.23;;;1.13;;
19179;SDS011;9722;48.754;8.868;2023-02-01T06:01:39;1.30;;;1.20;;
19179;SDS011;9722;48.754;8.868;2023-02-01T06:05:00;1.23;;;1.17;;
19179;SDS011;9722;48.754;8.868;2023-02-01T06:08:20;1.30;;;1.10;;
19179;SDS011;9722;48.754;8.868;2023-02-01T06:11:41;0.87;;;0.87;;
19179;SDS011;9722;48.754;8.868;2023-02-01T06:15:01;2.57;;;1.50;;
19179;SDS011;9722;48.754;8.868;2023-02-01T06:18:23;2.33;;;1.53;;
19179;SDS011;9722;48.754;8.868;2023-02-01T06:21:44;4.33;;;1.60;;
19179;SDS011;9722;48.754;8.868;2023-02-01T06:25:05;2.50;;;1.60;;
19179;SDS011;9722;48.754;8.868;2023-02-01T06:28:27;2.27;;;1.37;;
19179;SDS011;9722;48.754;8.868;2023-02-01T06:31:48;3.60;;;1.43;;
19179;SDS011;9722;48.754;8.868;2023-02-01T06:35:09;3.17;;;1.93;;
19179;SDS011;9722;48.754;8.868;2023-02-01T06:38:35;3.80;;;2.20;;
19179;SDS011;9722;48.754;8.868;2023-02-01T06:41:56;2.17;;;1.80;;
19179;SDS011;9722;48.754;8.868;2023-02-01T06:45:16;9.00;;;3.27;;
19179;SDS011;9722;48.754;8.868;2023-02-01T06:48:37;8.47;;;3.50;;
19179;SDS011;9722;48.754;8.868;2023-02-01T06:51:57;2.60;;;1.47;;
19179;SDS011;9722;48.754;8.868;2023-02-01T06:55:20;1.67;;;1.57;;
19179;SDS011;9722;48.754;8.868;2023-02-01T06:58:40;1.77;;;1.67;;
19179;SDS011;9722;48.754;8.868;2023-02-01T07:02:01;2.13;;;1.70;;
19179;SDS011;9722;48.754;8.868;2023-02-01T07:05:21;1.53;;;1.40;;
19179;SDS011;9722;48.754;8.868;2023-02-01T07:08:42;2.33;;;1.70;;
19179;SDS011;9722;48.754;8.868;2023-02-01T07:12:03;3.30;;;1.67;;
19179;SDS011;9722;48.754;8.868;2023-02-01T07:15:24;4.27;;;2.57;;
19179;SDS011;9722;48.754;8.868;2023-02-01T07:18:44;6.23;;;1.90;;
19179;SDS011;9722;48.754;8.868;2023-02-01T07:22:05;2.17;;;1.43;;
19179;SDS011;9722;48.754;8.868;2023-02-01T07:25:25;4.53;;;4.00;;
19179;SDS011;9722;48.754;8.868;2023-02-01T07:28:46;5.47;;;2.37;;
19179;SDS011;9722;48.754;8.868;2023-02-01T07:32:08;3.33;;;1.73;;
19179;SDS011;9722;48.754;8.868;2023-02-01T07:35:28;2.73;;;2.10;;
19179;SDS011;9722;48.754;8.868;2023-02-01T07:38:49;2.13;;;1.60;;
19179;SDS011;9722;48.754;8.868;2023-02-01T07:42:11;3.97;;;1.53;;
19179;SDS011;9722;48.754;8.868;2023-02-01T07:45:32;2.60;;;1.73;;
19179;SDS011;9722;48.754;8.868;2023-02-01T07:48:52;2.50;;;1.90;;
19179;SDS011;9722;48.754;8.868;2023-02-01T07:52:13;6.20;;;2.00;;
19179;SDS011;9722;48.754;8.868;2023-02-01T07:55:39;9.97;;;2.40;;
19179;SDS011;9722;48.754;8.868;2023-02-01T07:59:00;3.70;;;2.00;;
19179;SDS011;9722;48.754;8.868;2023-02-01T08:02:21;3.67;;;1.53;;
19179;SDS011;9722;48.754;8.868;2023-02-01T08:05:42;4.17;;;1.73;;
19179;SDS011;9722;48.754;8.868;2023-02-01T08:09:02;4.27;;;2.10;;
19179;SDS011;9722;48.754;8.868;2023-02-01T08:12:24;4.13;;;2.33;;
19179;SDS011;9722;48.754;8.868;2023-02-01T08:15:44;4.00;;;3.00;;
19179;SDS011;9722;48.754;8.868;2023-02-01T08:19:05;5.50;;;3.00;;
19179;SDS011;9722;48.754;8.868;2023-02-01T08:22:25;5.33;;;3.20;;
19179;SDS011;9722;48.754;8.868;2023-02-01T08:25:46;5.27;;;2.33;;
19179;SDS011;9722;48.754;8.868;2023-02-01T08:29:07;5.23;;;2.27;;
19179;SDS011;9722;48.754;8.868;2023-02-01T08:32:29;4.93;;;1.70;;
19179;SDS011;9722;48.754;8.868;2023-02-01T08:35:49;2.63;;;1.90;;
19179;SDS011;9722;48.754;8.868;2023-02-01T08:39:10;4.63;;;1.60;;
19179;SDS011;9722;48.754;8.868;2023-02-01T08:42:31;4.97;;;2.37;;
19179;SDS011;9722;48.754;8.868;2023-02-01T08:46:10;3.17;;;2.10;;
19179;SDS011;9722;48.754;8.868;2023-02-01T08:49:31;6.47;;;1.93;;
19179;SDS011;9722;48.754;8.868;2023-02-01T08:52:52;3.43;;;2.07;;
19179;SDS011;9722;48.754;8.868;2023-02-01T08:56:14;3.70;;;2.17;;
19179;SDS011;9722;48.754;8.868;2023-02-01T08:59:36;4.60;;;2.33;;
19179;SDS011;9722;48.754;8.868;2023-02-01T09:02:56;6.03;;;2.43;;
19179;SDS011;9722;48.754;8.868;2023-02-01T09:06:17;5.63;;;1.80;;
19179;SDS011;9722;48.754;8.868;2023-02-01T09:09:37;3.67;;;1.70;;
19179;SDS011;9722;48.754;8.868;2023-02-01T09:12:58;5.20;;;2.50;;
19179;SDS011;9722;48.754;8.868;2023-02-01T09:16:19;2.50;;;1.83;;
19179;SDS011;9722;48.754;8.868;2023-02-01T09:19:39;6.77;;;2.23;;
19179;SDS011;9722;48.754;8.868;2023-02-01T09:23:00;5.73;;;2.63;;
19179;SDS011;9722;48.754;8.868;2023-02-01T09:26:20;5.43;;;2.20;;
19179;SDS011;9722;48.754;8.868;2023-02-01T09:29:41;3.87;;;1.97;;
19179;SDS011;9722;48.754;8.868;2023-02-01T09:33:01;5.37;;;2.13;;
19179;SDS011;9722;48.754;8.868;2023-02-01T09:36:22;5.00;;;1.83;;
19179;SDS011;9722;48.754;8.868;2023-02-01T09:39:43;4.10;;;1.70;;
19179;SDS011;9722;48.754;8.868;2023-02-01T09:46:42;5.93;;;1.83;;
19179;SDS011;9722;48.754;8.868;2023-02-01T09:50:05;3.80;;;1.90;;
19179;SDS011;9722;48.754;8.868;2023-02-01T09:53:40;4.00;;;1.70;;
19179;SDS011;9722;48.754;8.868;2023-02-01T09:57:05;9.40;;;2.00;;
19179;SDS011;9722;48.754;8.868;2023-02-01T10:00:39;6.10;;;1.50;;
19179;SDS011;9722;48.754;8.868;2023-02-01T10:04:02;2.63;;;1.40;;
19179;SDS011;9722;48.754;8.868;2023-02-01T10:07:29;4.27;;;2.00;;
19179;SDS011;9722;48.754;8.868;2023-02-01T10:14:59;10.60;;;2.90;;
19179;SDS011;9722;48.754;8.868;2023-02-01T10:29:31;4.67;;;1.87;;
19179;SDS011;9722;48.754;8.868;2023-02-01T10:32:57;7.17;;;2.40;;
19179;SDS011;9722;48.754;8.868;2023-02-01T10:36:40;3.37;;;1.40;;
19179;SDS011;9722;48.754;8.868;2023-02-01T10:40:03;5.77;;;2.57;;
19179;SDS011;9722;48.754;8.868;2023-02-01T10:43:33;3.23;;;1.57;;
19179;SDS011;9722;48.754;8.868;2023-02-01T10:46:54;6.13;;;1.90;;
19179;SDS011;9722;48.754;8.868;2023-02-01T10:50:25;6.10;;;2.00;;
19179;SDS011;9722;48.754;8.868;2023-02-01T10:53:50;5.03;;;1.97;;
19179;SDS011;9722;48.754;8.868;2023-02-01T10:57:24;5.37;;;1.60;;
19179;SDS011;9722;48.754;8.868;2023-02-01T11:00:47;7.83;;;4.07;;
19179;SDS011;9722;48.754;8.868;2023-02-01T11:04:14;6.10;;;1.87;;
19179;SDS011;9722;48.754;8.868;2023-02-01T11:07:40;7.30;;;2.67;;
19179;SDS011;9722;48.754;8.868;2023-02-01T11:11:07;7.83;;;2.63;;
19179;SDS011;9722;48.754;8.868;2023-02-01T11:14:35;6.23;;;2.80;;
19179;SDS011;9722;48.754;8.868;2023-02-01T11:18:12;4.53;;;2.07;;
19179;SDS011;9722;48.754;8.868;2023-02-01T11:21:36;6.33;;;2.17;;
19179;SDS011;9722;48.754;8.868;2023-02-01T11:24:57;5.40;;;2.53;;
19179;SDS011;9722;48.754;8.868;2023-02-01T11:28:22;6.13;;;2.40;;
19179;SDS011;9722;48.754;8.868;2023-02-01T11:31:45;6.37;;;2.33;;
19179;SDS011;9722;48.754;8.868;2023-02-01T11:35:06;12.80;;;3.17;;
19179;SDS011;9722;48.754;8.868;2023-02-01T11:38:32;5.47;;;1.90;;
19179;SDS011;9722;48.754;8.868;2023-02-01T11:41:55;7.40;;;3.40;;
19179;SDS011;9722;48.754;8.868;2023-02-01T11:45:26;6.53;;;2.57;;
19179;SDS011;9722;48.754;8.868;2023-02-01T11:48:48;10.07;;;2.80;;
19179;SDS011;9722;48.754;8.868;2023-02-01T11:56:12;4.30;;;2.57;;
19179;SDS011;9722;48.754;8.868;2023-02-01T12:07:41;4.10;;;1.40;;
19179;SDS011;9722;48.754;8.868;2023-02-01T12:11:22;5.13;;;1.57;;
19179;SDS011;9722;48.754;8.868;2023-02-01T12:26:12;5.23;;;2.20;;
19179;SDS011;9722;48.754;8.868;2023-02-01T12:34:35;3.50;;;1.47;;
19179;SDS011;9722;48.754;8.868;2023-02-01T12:37:38;4.03;;;1.80;;
19179;SDS011;9722;48.754;8.868;2023-02-01T12:41:26;4.77;;;1.93;;
19179;SDS011;9722;48.754;8.868;2023-02-01T12:45:11;5.17;;;1.63;;
19179;SDS011;9722;48.754;8.868;2023-02-01T12:52:40;2.70;;;1.60;;
19179;SDS011;9722;48.754;8.868;2023-02-01T12:56:07;5.77;;;1.73;;
19179;SDS011;9722;48.754;8.868;2023-02-01T12:59:34;4.90;;;1.90;;
19179;SDS011;9722;48.754;8.868;2023-02-01T13:03:19;3.30;;;1.57;;
19179;SDS011;9722;48.754;8.868;2023-02-01T13:06:50;3.63;;;1.83;;
19179;SDS011;9722;48.754;8.868;2023-02-01T13:10:33;10.63;;;4.10;;
19179;SDS011;9722;48.754;8.868;2023-02-01T13:14:07;2.83;;;1.60;;
19179;SDS011;9722;48.754;8.868;2023-02-01T13:17:50;5.87;;;2.10;;
19179;SDS011;9722;48.754;8.868;2023-02-01T13:21:15;7.07;;;2.17;;
19179;SDS011;9722;48.754;8.868;2023-02-01T13:24:44;5.17;;;1.40;;
19179;SDS011;9722;48.754;8.868;2023-02-01T13:28:12;5.63;;;3.37;;
19179;SDS011;9722;48.754;8.868;2023-02-01T13:31:47;5.03;;;2.80;;
19179;SDS011;9722;48.754;8.868;2023-02-01T13:42:28;5.70;;;1.47;;
19179;SDS011;9722;48.754;8.868;2023-02-01T13:45:56;4.07;;;1.50;;
19179;SDS011;9722;48.754;8.868;2023-02-01T13:49:23;3.87;;;1.60;;
19179;SDS011;9722;48.754;8.868;2023-02-01T13:52:52;5.53;;;1.77;;
19179;SDS011;9722;48.754;8.868;2023-02-01T13:56:42;5.47;;;1.50;;
19179;SDS011;9722;48.754;8.868;2023-02-01T14:00:46;3.37;;;1.47;;
19179;SDS011;9722;48.754;8.868;2023-02-01T14:03:54;2.90;;;1.53;;
19179;SDS011;9722;48.754;8.868;2023-02-01T14:07:19;8.20;;;1.70;;
19179;SDS011;9722;48.754;8.868;2023-02-01T14:17:34;7.53;;;1.80;;
19179;SDS011;9722;48.754;8.868;2023-02-01T14:21:10;6.23;;;1.73;;
19179;SDS011;9722;48.754;8.868;2023-02-01T14:24:36;2.60;;;1.37;;
19179;SDS011;9722;48.754;8.868;2023-02-01T14:27:57;3.80;;;1.50;;
19179;SDS011;9722;48.754;8.868;2023-02-01T14:31:25;5.43;;;1.50;;
19179;SDS011;9722;48.754;8.868;2023-02-01T14:35:00;4.70;;;1.20;;
19179;SDS011;9722;48.754;8.868;2023-02-01T14:38:21;3.97;;;1.80;;
19179;SDS011;9722;48.754;8.868;2023-02-01T14:41:42;3.43;;;1.50;;
19179;SDS011;9722;48.754;8.868;2023-02-01T14:48:42;7.00;;;1.77;;
19179;SDS011;9722;48.754;8.868;2023-02-01T14:52:06;2.37;;;1.30;;
19179;SDS011;9722;48.754;8.868;2023-02-01T14:59:08;7.60;;;1.87;;
19179;SDS011;9722;48.754;8.868;2023-02-01T15:02:36;4.77;;;1.67;;
19179;SDS011;9722;48.754;8.868;2023-02-01T15:05:59;7.67;;;1.90;;
19179;SDS011;9722;48.754;8.868;2023-02-01T15:12:48;5.87;;;2.30;;
19179;SDS011;9722;48.754;8.868;2023-02-01T15:16:11;9.33;;;1.80;;
19179;SDS011;9722;48.754;8.868;2023-02-01T15:19:34;5.23;;;2.13;;
19179;SDS011;9722;48.754;8.868;2023-02-01T15:22:56;5.57;;;2.23;;
19179;SDS011;9722;48.754;8.868;2023-02-01T15:26:28;4.33;;;1.90;;
19179;SDS011;9722;48.754;8.868;2023-02-01T15:29:51;9.40;;;1.50;;
19179;SDS011;9722;48.754;8.868;2023-02-01T15:36:39;3.10;;;1.87;;
19179;SDS011;9722;48.754;8.868;2023-02-01T15:46:59;6.13;;;2.43;;
19179;SDS011;9722;48.754;8.868;2023-02-01T15:50:32;4.37;;;1.60;;
19179;SDS011;9722;48.754;8.868;2023-02-01T15:53:57;3.40;;;1.40;;
19179;SDS011;9722;48.754;8.868;2023-02-01T15:57:39;3.40;;;2.07;;
19179;SDS011;9722;48.754;8.868;2023-02-01T16:01:02;9.30;;;3.23;;
19179;SDS011;9722;48.754;8.868;2023-02-01T16:04:27;10.10;;;4.43;;
19179;SDS011;9722;48.754;8.868;2023-02-01T16:08:00;7.47;;;2.30;;
19179;SDS011;9722;48.754;8.868;2023-02-01T16:11:39;5.27;;;1.90;;
19179;SDS011;9722;48.754;8.868;2023-02-01T16:15:20;3.33;;;1.63;;
19179;SDS011;9722;48.754;8.868;2023-02-01T16:18:41;3.33;;;1.57;;
19179;SDS011;9722;48.754;8.868;2023-02-01T16:22:01;3.50;;;1.73;;
19179;SDS011;9722;48.754;8.868;2023-02-01T16:25:22;5.23;;;1.50;;
19179;SDS011;9722;48.754;8.868;2023-02-01T16:28:42;4.93;;;2.23;;
19179;SDS011;9722;48.754;8.868;2023-02-01T16:32:03;6.47;;;2.20;;
19179;SDS011;9722;48.754;8.868;2023-02-01T16:35:25;4.20;;;2.27;;
19179;SDS011;9722;48.754;8.868;2023-02-01T16:38:55;4.57;;;1.90;;
19179;SDS011;9722;48.754;8.868;2023-02-01T16:42:16;6.30;;;2.20;;
19179;SDS011;9722;48.754;8.868;2023-02-01T16:45:36;3.60;;;1.30;;
19179;SDS011;9722;48.754;8.868;2023-02-01T16:48:58;4.30;;;2.00;;
19179;SDS011;9722;48.754;8.868;2023-02-01T16:52:24;6.73;;;1.97;;
19179;SDS011;9722;48.754;8.868;2023-02-01T16:55:46;3.00;;;1.57;;
19179;SDS011;9722;48.754;8.868;2023-02-01T16:59:09;4.40;;;2.10;;
19179;SDS011;9722;48.754;8.868;2023-02-01T17:02:29;5.47;;;1.57;;
19179;SDS011;9722;48.754;8.868;2023-02-01T17:05:51;5.43;;;2.00;;
19179;SDS011;9722;48.754;8.868;2023-02-01T17:09:15;7.13;;;2.00;;
19179;SDS011;9722;48.754;8.868;2023-02-01T17:12:36;2.90;;;1.73;;
19179;SDS011;9722;48.754;8.868;2023-02-01T17:16:00;5.20;;;2.00;;
19179;SDS011;9722;48.754;8.868;2023-02-01T17:19:23;4.60;;;1.80;;
19179;SDS011;9722;48.754;8.868;2023-02-01T17:22:44;5.70;;;1.50;;
19179;SDS011;9722;48.754;8.868;2023-02-01T17:26:07;4.57;;;1.53;;
19179;SDS011;9722;48.754;8.868;2023-02-01T17:29:29;3.33;;;1.47;;
19179;SDS011;9722;48.754;8.868;2023-02-01T17:32:49;5.60;;;1.47;;
19179;SDS011;9722;48.754;8.868;2023-02-01T17:36:14;5.67;;;2.43;;
19179;SDS011;9722;48.754;8.868;2023-02-01T17:39:36;4.07;;;1.47;;
19179;SDS011;9722;48.754;8.868;2023-02-01T17:43:16;5.83;;;1.73;;
19179;SDS011;9722;48.754;8.868;2023-02-01T17:46:40;5.20;;;2.00;;
19179;SDS011;9722;48.754;8.868;2023-02-01T17:50:01;4.67;;;1.60;;
19179;SDS011;9722;48.754;8.868;2023-02-01T17:53:21;3.27;;;1.23;;
19179;SDS011;9722;48.754;8.868;2023-02-01T17:56:43;5.17;;;2.00;;
19179;SDS011;9722;48.754;8.868;2023-02-01T18:00:04;4.47;;;1.50;;
19179;SDS011;9722;48.754;8.868;2023-02-01T18:03:25;4.57;;;2.00;;
19179;SDS011;9722;48.754;8.868;2023-02-01T18:06:48;5.63;;;2.47;;
19179;SDS011;9722;48.754;8.868;2023-02-01T18:10:09;6.77;;;1.77;;
19179;SDS011;9722;48.754;8.868;2023-02-01T18:13:30;5.03;;;1.60;;
19179;SDS011;9722;48.754;8.868;2023-02-01T18:16:51;5.83;;;1.97;;
19179;SDS011;9722;48.754;8.868;2023-02-01T18:20:16;5.47;;;1.53;;
19179;SDS011;9722;48.754;8.868;2023-02-01T18:23:38;2.57;;;1.60;;
19179;SDS011;9722;48.754;8.868;2023-02-01T18:26:59;5.63;;;1.50;;
19179;SDS011;9722;48.754;8.868;2023-02-01T18:30:20;11.53;;;3.00;;
19179;SDS011;9722;48.754;8.868;2023-02-01T18:33:44;11.40;;;4.67;;
19179;SDS011;9722;48.754;8.868;2023-02-01T18:37:04;5.80;;;2.70;;
19179;SDS011;9722;48.754;8.868;2023-02-01T18:40:26;6.83;;;3.13;;
19179;SDS011;9722;48.754;8.868;2023-02-01T18:43:50;4.70;;;2.10;;
19179;SDS011;9722;48.754;8.868;2023-02-01T18:47:12;8.47;;;2.40;;
19179;SDS011;9722;48.754;8.868;2023-02-01T18:50:33;6.43;;;3.23;;
19179;SDS011;9722;48.754;8.868;2023-02-01T18:53:55;5.40;;;1.93;;
19179;SDS011;9722;48.754;8.868;2023-02-01T18:57:16;2.60;;;1.90;;
19179;SDS011;9722;48.754;8.868;2023-02-01T19:00:36;10.30;;;3.83;;
19179;SDS011;9722;48.754;8.868;2023-02-01T19:03:57;3.23;;;1.50;;
19179;SDS011;9722;48.754;8.868;2023-02-01T19:07:19;4.67;;;2.13;;
19179;SDS011;9722;48.754;8.868;2023-02-01T19:10:42;5.53;;;3.10;;
19179;SDS011;9722;48.754;8.868;2023-02-01T19:14:03;6.47;;;3.90;;
19179;SDS011;9722;48.754;8.868;2023-02-01T19:17:23;7.97;;;3.27;;
19179;SDS011;9722;48.754;8.868;2023-02-01T19:20:45;6.60;;;3.20;;
19179;SDS011;9722;48.754;8.868;2023-02-01T19:24:09;7.00;;;2.20;;
19179;SDS011;9722;48.754;8.868;2023-02-01T19:27:29;4.70;;;1.50;;
19179;SDS011;9722;48.754;8.868;2023-02-01T19:30:59;5.47;;;1.47;;
19179;SDS011;9722;48.754;8.868;2023-02-01T19:34:21;4.50;;;1.73;;
19179;SDS011;9722;48.754;8.868;2023-02-01T19:37:41;4.00;;;1.97;;
19179;SDS011;9722;48.754;8.868;2023-02-01T19:41:02;2.43;;;1.60;;
19179;SDS011;9722;48.754;8.868;2023-02-01T19:44:23;3.43;;;1.67;;
19179;SDS011;9722;48.754;8.868;2023-02-01T19:47:44;8.13;;;1.93;;
19179;SDS011;9722;48.754;8.868;2023-02-01T19:51:05;7.43;;;1.70;;
19179;SDS011;9722;48.754;8.868;2023-02-01T19:54:26;6.43;;;1.97;;
19179;SDS011;9722;48.754;8.868;2023-02-01T19:57:47;3.67;;;1.73;;
19179;SDS011;9722;48.754;8.868;2023-02-01T20:01:07;3.93;;;1.50;;
19179;SDS011;9722;48.754;8.868;2023-02-01T20:04:28;4.80;;;1.40;;
19179;SDS011;9722;48.754;8.868;2023-02-01T20:07:49;5.33;;;1.77;;
19179;SDS011;9722;48.754;8.868;2023-02-01T20:11:09;3.97;;;1.70;;
19179;SDS011;9722;48.754;8.868;2023-02-01T20:14:30;4.27;;;1.30;;
19179;SDS011;9722;48.754;8.868;2023-02-01T20:17:50;7.53;;;1.87;;
19179;SDS011;9722;48.754;8.868;2023-02-01T20:21:11;4.83;;;1.57;;
19179;SDS011;9722;48.754;8.868;2023-02-01T20:24:32;5.90;;;1.97;;
19179;SDS011;9722;48.754;8.868;2023-02-01T20:27:53;4.23;;;2.00;;
19179;SDS011;9722;48.754;8.868;2023-02-01T20:31:14;6.47;;;2.47;;
19179;SDS011;9722;48.754;8.868;2023-02-01T20:34:34;6.90;;;1.93;;
19179;SDS011;9722;48.754;8.868;2023-02-01T20:37:55;5.67;;;2.60;;
19179;SDS011;9722;48.754;8.868;2023-02-01T20:41:17;5.60;;;2.17;;
19179;SDS011;9722;48.754;8.868;2023-02-01T20:44:38;4.67;;;2.13;;
19179;SDS011;9722;48.754;8.868;2023-02-01T20:47:59;13.83;;;4.10;;
19179;SDS011;9722;48.754;8.868;2023-02-01T20:51:19;4.80;;;2.10;;
19179;SDS011;9722;48.754;8.868;2023-02-01T20:54:40;3.83;;;2.43;;
19179;SDS011;9722;48.754;8.868;2023-02-01T20:58:01;8.80;;;2.70;;
19179;SDS011;9722;48.754;8.868;2023-02-01T21:01:21;2.97;;;1.90;;
19179;SDS011;9722;48.754;8.868;2023-02-01T21:04:42;8.83;;;1.90;;
19179;SDS011;9722;48.754;8.868;2023-02-01T21:08:02;4.87;;;1.90;;
19179;SDS011;9722;48.754;8.868;2023-02-01T21:11:23;2.87;;;1.90;;
19179;SDS011;9722;48.754;8.868;2023-02-01T21:14:43;5.57;;;2.17;;
19179;SDS011;9722;48.754;8.868;2023-02-01T21:18:04;5.57;;;2.10;;
19179;SDS011;9722;48.754;8.868;2023-02-01T21:21:27;3.70;;;2.20;;
19179;SDS011;9722;48.754;8.868;2023-02-01T21:24:48;8.30;;;2.13;;
19179;SDS011;9722;48.754;8.868;2023-02-01T21:28:09;4.50;;;2.07;;
19179;SDS011;9722;48.754;8.868;2023-02-01T21:31:31;4.60;;;2.80;;
19179;SDS011;9722;48.754;8.868;2023-02-01T21:34:52;8.80;;;2.67;;
19179;SDS011;9722;48.754;8.868;2023-02-01T21:38:12;5.63;;;2.20;;
19179;SDS011;9722;48.754;8.868;2023-02-01T21:41:34;9.27;;;2.50;;
19179;SDS011;9722;48.754;8.868;2023-02-01T21:45:14;5.90;;;2.67;;
19179;SDS011;9722;48.754;8.868;2023-02-01T21:48:36;9.93;;;4.40;;
19179;SDS011;9722;48.754;8.868;2023-02-01T21:52:00;8.77;;;2.90;;
19179;SDS011;9722;48.754;8.868;2023-02-01T21:55:20;8.30;;;2.67;;
19179;SDS011;9722;48.754;8.868;2023-02-01T21:58:41;7.37;;;3.63;;
19179;SDS011;9722;48.754;8.868;2023-02-01T22:02:01;7.03;;;4.20;;
19179;SDS011;9722;48.754;8.868;2023-02-01T22:05:23;7.80;;;2.40;;
19179;SDS011;9722;48.754;8.868;2023-02-01T22:08:44;5.93;;;1.97;;
19179;SDS011;9722;48.754;8.868;2023-02-01T22:12:04;7.00;;;1.53;;
19179;SDS011;9722;48.754;8.868;2023-02-01T22:15:27;5.57;;;2.50;;
19179;SDS011;9722;48.754;8.868;2023-02-01T22:18:48;3.23;;;1.37;;
19179;SDS011;9722;48.754;8.868;2023-02-01T22:22:10;5.50;;;2.17;;
19179;SDS011;9722;48.754;8.868;2023-02-01T22:25:30;4.20;;;1.57;;
19179;SDS011;9722;48.754;8.868;2023-02-01T22:28:51;4.17;;;1.90;;